Time;durP1;ratioP1;P1;durP2;ratioP2;P2;SDS_P1;SDS_P2;PMS_P1;PMS_P2;Temp;Humidity;BMP_temperature;BMP_pressure;BME280_temperature;BME280_humidity;BME280_pressure;Samples;Min_cycle;Max_cycle;Signal;HPM_P1;HPM_P2
2022/11/25 00:02:06;;;;;;;1.30;0.30;;;;;;;;;;6136867;23;20080;-42
2022/11/25 00:04:35;;;;;;;1.45;0.30;;;;;;;;;;6133701;23;20013;-42
2022/11/25 00:07:02;;;;;;;8.90;0.85;;;;;;;;;;6136163;23;20025;-41
2022/11/25 00:09:28;;;;;;;1.63;0.83;;;;;;;;;;6135507;23;20053;-41
2022/11/25 00:11:55;;;;;;;1.13;0.30;;;;;;;;;;6136034;23;20476;-42
2022/11/25 00:14:21;;;;;;;1.02;0.15;;;;;;;;;;6134512;23;20096;-42
2022/11/25 00:16:48;;;;;;;1.80;0.73;;;;;;;;;;6135586;23;20532;-42
2022/11/25 00:19:19;;;;;;;1.45;0.30;;;;;;;;;;6136904;23;20029;-42
2022/11/25 00:21:45;;;;;;;1.17;0.20;;;;;;;;;;6134574;23;20013;-44
2022/11/25 00:24:14;;;;;;;1.30;0.20;;;;;;;;;;6137784;23;20014;-43
2022/11/25 00:26:40;;;;;;;1.52;0.20;;;;;;;;;;6132295;23;20087;-41
2022/11/25 00:29:07;;;;;;;1.23;0.20;;;;;;;;;;6137679;23;20021;-41
2022/11/25 00:31:35;;;;;;;1.95;0.95;;;;;;;;;;6135617;23;20022;-42
2022/11/25 00:34:02;;;;;;;2.23;0.47;;;;;;;;;;6138977;23;20029;-41
2022/11/25 00:36:30;;;;;;;1.90;0.30;;;;;;;;;;6134957;23;20080;-41
2022/11/25 00:38:57;;;;;;;1.20;0.38;;;;;;;;;;6112315;23;20021;-44
2022/11/25 00:46:54;;;;;;;1.00;0.20;;;;;;;;;;6139412;23;20554;-41
2022/11/25 00:49:20;;;;;;;1.20;0.20;;;;;;;;;;6135480;23;20013;-42
2022/11/25 00:51:48;;;;;;;2.10;0.65;;;;;;;;;;6136446;23;20017;-41
2022/11/25 00:54:14;;;;;;;1.58;0.55;;;;;;;;;;6139922;23;20430;-43
2022/11/25 00:56:41;;;;;;;1.23;0.20;;;;;;;;;;6135397;23;20431;-42
2022/11/25 00:59:07;;;;;;;6.40;0.40;;;;;;;;;;6132491;23;20028;-41
2022/11/25 01:01:34;;;;;;;1.45;0.40;;;;;;;;;;6134738;23;20021;-45
2022/11/25 01:04:01;;;;;;;1.65;0.43;;;;;;;;;;6138324;23;20065;-41
2022/11/25 01:06:27;;;;;;;1.45;0.30;;;;;;;;;;6138825;23;20391;-44
2022/11/25 01:08:55;;;;;;;4.88;0.52;;;;;;;;;;6138853;23;20029;-41
2022/11/25 01:11:22;;;;;;;1.43;0.23;;;;;;;;;;6134631;23;20211;-44
2022/11/25 01:13:49;;;;;;;1.25;0.25;;;;;;;;;;6136919;23;20031;-41
2022/11/25 01:16:17;;;;;;;2.60;0.98;;;;;;;;;;6139952;23;20389;-44
2022/11/25 01:18:44;;;;;;;1.25;0.20;;;;;;;;;;6135885;23;20017;-42
2022/11/25 01:21:15;;;;;;;1.48;0.30;;;;;;;;;;6138209;23;20077;-42
2022/11/25 01:23:43;;;;;;;2.13;0.70;;;;;;;;;;6139310;23;20024;-42
2022/11/25 01:26:12;;;;;;;1.60;0.40;;;;;;;;;;6138676;23;20014;-43
2022/11/25 01:28:39;;;;;;;1.40;0.50;;;;;;;;;;6139523;23;20021;-42
2022/11/25 01:31:06;;;;;;;1.70;0.30;;;;;;;;;;6138373;23;20021;-41
2022/11/25 01:33:33;;;;;;;3.92;1.75;;;;;;;;;;6111599;23;20691;-42
2022/11/25 01:36:01;;;;;;;2.30;1.00;;;;;;;;;;6115192;23;20022;-43
2022/11/25 01:38:28;;;;;;;1.65;0.40;;;;;;;;;;6140893;23;20018;-43
2022/11/25 01:40:55;;;;;;;1.30;0.20;;;;;;;;;;6111338;23;20022;-41
2022/11/25 01:43:23;;;;;;;1.75;0.93;;;;;;;;;;6139200;23;20022;-41
2022/11/25 01:45:49;;;;;;;1.30;0.43;;;;;;;;;;6141816;23;20028;-41
2022/11/25 01:48:18;;;;;;;1.60;0.50;;;;;;;;;;6140254;23;20072;-42
2022/11/25 01:50:45;;;;;;;1.48;0.32;;;;;;;;;;6141735;23;20025;-43
2022/11/25 01:53:13;;;;;;;2.00;0.20;;;;;;;;;;6140198;23;20013;-42
2022/11/25 01:55:41;;;;;;;1.60;0.43;;;;;;;;;;6139299;23;20013;-41
2022/11/25 01:58:10;;;;;;;1.02;0.20;;;;;;;;;;6135926;23;20013;-43
2022/11/25 02:00:38;;;;;;;2.63;0.73;;;;;;;;;;6142723;23;20021;-44
2022/11/25 02:03:05;;;;;;;1.17;0.20;;;;;;;;;;6135391;23;20293;-45
2022/11/25 02:05:42;;;;;;;2.65;1.70;;;;;;;;;;6140108;23;20024;-45
2022/11/25 02:08:09;;;;;;;1.00;0.15;;;;;;;;;;6140310;23;20381;-42
2022/11/25 02:10:36;;;;;;;1.77;1.05;;;;;;;;;;6135394;23;20060;-42
2022/11/25 02:13:02;;;;;;;1.97;0.80;;;;;;;;;;6140595;23;20132;-42
2022/11/25 02:15:30;;;;;;;1.25;0.22;;;;;;;;;;6137107;23;20047;-41
2022/11/25 02:17:58;;;;;;;4.03;0.65;;;;;;;;;;6138240;23;20554;-41
2022/11/25 02:20:25;;;;;;;1.60;0.40;;;;;;;;;;6132358;23;20013;-42
2022/11/25 02:22:59;;;;;;;1.50;0.38;;;;;;;;;;6140995;23;20018;-42
2022/11/25 02:25:29;;;;;;;1.33;0.30;;;;;;;;;;6136489;23;20448;-41
2022/11/25 02:27:58;;;;;;;1.33;0.25;;;;;;;;;;6140709;23;20436;-41
2022/11/25 02:30:25;;;;;;;1.30;0.25;;;;;;;;;;6138692;23;20100;-42
2022/11/25 02:32:51;;;;;;;2.92;0.68;;;;;;;;;;6138446;23;20113;-41
2022/11/25 02:35:23;;;;;;;1.30;0.30;;;;;;;;;;6139730;23;20013;-41
2022/11/25 02:37:50;;;;;;;2.40;0.70;;;;;;;;;;6135632;23;20475;-40
2022/11/25 02:40:17;;;;;;;2.55;0.90;;;;;;;;;;6138296;23;20033;-42
2022/11/25 02:42:45;;;;;;;1.50;0.30;;;;;;;;;;6135096;23;20030;-41
2022/11/25 02:45:13;;;;;;;2.03;0.55;;;;;;;;;;6136094;23;20512;-43
2022/11/25 02:47:40;;;;;;;2.65;0.38;;;;;;;;;;6140752;23;20045;-41
2022/11/25 02:50:07;;;;;;;5.80;1.83;;;;;;;;;;6138132;23;20025;-41
2022/11/25 02:52:34;;;;;;;1.20;0.20;;;;;;;;;;6140612;23;20065;-41
2022/11/25 02:55:00;;;;;;;1.23;0.35;;;;;;;;;;6132448;23;20025;-41
2022/11/25 02:57:26;;;;;;;2.63;1.02;;;;;;;;;;6113271;23;20444;-41
2022/11/25 02:59:55;;;;;;;1.38;0.20;;;;;;;;;;6135737;23;20032;-42
2022/11/25 03:02:21;;;;;;;2.53;0.97;;;;;;;;;;6141440;23;20022;-42
2022/11/25 03:04:48;;;;;;;1.52;0.40;;;;;;;;;;6139290;23;20024;-45
2022/11/25 03:07:14;;;;;;;1.40;0.40;;;;;;;;;;6137591;23;20021;-42
2022/11/25 03:09:42;;;;;;;1.48;0.30;;;;;;;;;;6140505;23;20017;-41
2022/11/25 03:12:21;;;;;;;1.50;0.43;;;;;;;;;;6135755;23;20020;-41
2022/11/25 03:14:48;;;;;;;1.93;0.50;;;;;;;;;;6141057;23;20044;-41
2022/11/25 03:17:16;;;;;;;1.30;0.45;;;;;;;;;;6133680;23;20021;-43
2022/11/25 03:19:42;;;;;;;0.95;0.20;;;;;;;;;;6124157;23;20131;-41
2022/11/25 03:22:09;;;;;;;2.33;0.73;;;;;;;;;;6138391;23;20025;-41
2022/11/25 03:24:39;;;;;;;1.50;0.57;;;;;;;;;;6142875;23;20071;-42
2022/11/25 03:27:05;;;;;;;2.13;1.40;;;;;;;;;;6141544;23;20018;-42
2022/11/25 03:29:32;;;;;;;2.58;0.88;;;;;;;;;;6139836;23;20476;-40
2022/11/25 03:31:58;;;;;;;1.63;0.30;;;;;;;;;;6139947;23;20014;-41
2022/11/25 03:34:26;;;;;;;1.25;0.30;;;;;;;;;;6131927;23;20018;-40
2022/11/25 03:36:53;;;;;;;2.10;1.13;;;;;;;;;;6138368;23;20357;-44
2022/11/25 03:39:19;;;;;;;2.27;0.63;;;;;;;;;;6137281;23;20021;-41
2022/11/25 03:41:45;;;;;;;1.20;0.20;;;;;;;;;;6138737;23;20013;-45
2022/11/25 03:44:12;;;;;;;1.20;0.20;;;;;;;;;;6138778;23;20017;-42
2022/11/25 03:46:38;;;;;;;1.20;0.20;;;;;;;;;;6137503;23;20014;-42
2022/11/25 03:49:05;;;;;;;1.95;0.63;;;;;;;;;;6138089;23;20021;-41
2022/11/25 03:51:33;;;;;;;1.30;0.20;;;;;;;;;;6113455;23;20072;-43
2022/11/25 03:53:59;;;;;;;1.73;0.63;;;;;;;;;;6114278;23;20021;-41
2022/11/25 03:56:26;;;;;;;2.65;1.38;;;;;;;;;;6136060;23;20077;-41
2022/11/25 03:58:52;;;;;;;1.50;0.30;;;;;;;;;;6141983;23;20053;-41
2022/11/25 04:01:19;;;;;;;2.03;0.70;;;;;;;;;;6133324;23;20365;-43
2022/11/25 04:03:45;;;;;;;5.43;0.73;;;;;;;;;;6140597;23;20017;-44
2022/11/25 04:06:12;;;;;;;1.20;0.20;;;;;;;;;;6124315;23;20017;-41
2022/11/25 04:08:39;;;;;;;2.05;0.30;;;;;;;;;;6141167;23;20022;-43
2022/11/25 04:11:06;;;;;;;0.98;0.10;;;;;;;;;;6138448;23;20013;-44
2022/11/25 04:13:31;;;;;;;1.20;0.20;;;;;;;;;;6138064;23;20065;-41
2022/11/25 04:15:58;;;;;;;3.63;1.60;;;;;;;;;;6139869;23;20029;-41
2022/11/25 04:18:24;;;;;;;1.30;0.20;;;;;;;;;;6120816;23;20021;-40
2022/11/25 04:20:51;;;;;;;1.00;0.20;;;;;;;;;;6135164;23;20018;-41
2022/11/25 04:23:18;;;;;;;1.30;0.20;;;;;;;;;;6134531;23;20013;-43
2022/11/25 04:25:50;;;;;;;1.33;0.35;;;;;;;;;;6141664;23;20018;-42
2022/11/25 04:28:17;;;;;;;1.20;0.30;;;;;;;;;;6132634;23;20517;-41
2022/11/25 04:30:44;;;;;;;1.40;0.55;;;;;;;;;;6143707;23;20022;-41
2022/11/25 04:33:10;;;;;;;1.15;0.20;;;;;;;;;;6135293;23;20014;-41
2022/11/25 04:35:37;;;;;;;1.17;0.20;;;;;;;;;;6137803;23;20028;-43
2022/11/25 04:38:03;;;;;;;1.30;0.20;;;;;;;;;;6134997;23;20093;-43
2022/11/25 04:40:29;;;;;;;3.15;0.20;;;;;;;;;;6138308;23;20473;-45
2022/11/25 04:42:58;;;;;;;1.17;0.20;;;;;;;;;;6139178;23;20452;-43
2022/11/25 04:45:25;;;;;;;1.30;0.20;;;;;;;;;;6141067;23;20059;-42
2022/11/25 04:47:51;;;;;;;1.37;0.20;;;;;;;;;;6140336;23;20013;-43
2022/11/25 04:50:20;;;;;;;1.20;0.20;;;;;;;;;;6132151;23;20013;-43
2022/11/25 04:52:46;;;;;;;1.20;0.20;;;;;;;;;;6141044;23;20025;-41
2022/11/25 04:55:12;;;;;;;3.40;0.40;;;;;;;;;;6136410;23;20667;-43
2022/11/25 04:57:39;;;;;;;1.80;0.68;;;;;;;;;;6139834;23;20445;-43
2022/11/25 05:00:08;;;;;;;1.63;0.57;;;;;;;;;;6135005;23;20437;-41
2022/11/25 05:02:34;;;;;;;1.52;0.50;;;;;;;;;;6140965;23;20170;-43
2022/11/25 05:05:01;;;;;;;1.13;0.20;;;;;;;;;;6141175;23;20021;-42
2022/11/25 05:07:28;;;;;;;2.58;0.73;;;;;;;;;;6136344;23;20013;-44
2022/11/25 05:09:55;;;;;;;1.85;0.47;;;;;;;;;;6143202;23;20025;-43
2022/11/25 05:12:23;;;;;;;1.13;0.20;;;;;;;;;;6136789;23;20026;-42
2022/11/25 05:14:50;;;;;;;1.02;0.20;;;;;;;;;;6139577;23;20025;-42
2022/11/25 05:17:19;;;;;;;2.10;0.50;;;;;;;;;;6137131;23;20069;-42
2022/11/25 05:19:45;;;;;;;2.67;1.30;;;;;;;;;;6135462;23;20026;-42
2022/11/25 05:22:12;;;;;;;2.60;0.35;;;;;;;;;;6135480;23;20459;-42
2022/11/25 05:24:38;;;;;;;1.20;0.20;;;;;;;;;;6136256;23;20018;-42
2022/11/25 05:27:09;;;;;;;1.60;0.63;;;;;;;;;;6138102;23;20424;-42
2022/11/25 05:29:35;;;;;;;2.67;0.30;;;;;;;;;;6138517;23;20088;-45
2022/11/25 05:32:02;;;;;;;2.05;0.95;;;;;;;;;;6138717;23;20037;-44
2022/11/25 05:34:30;;;;;;;2.40;1.10;;;;;;;;;;6138094;23;20017;-42
2022/11/25 05:36:56;;;;;;;3.27;0.30;;;;;;;;;;6139292;23;20021;-42
2022/11/25 05:39:23;;;;;;;1.25;0.30;;;;;;;;;;6134641;23;20021;-42
2022/11/25 05:41:49;;;;;;;1.05;0.22;;;;;;;;;;6138589;23;20021;-43
2022/11/25 05:44:16;;;;;;;1.63;0.45;;;;;;;;;;6126573;23;20377;-42
2022/11/25 05:46:44;;;;;;;1.38;0.28;;;;;;;;;;6139980;23;20372;-44
2022/11/25 05:49:10;;;;;;;2.13;0.63;;;;;;;;;;6134161;23;20021;-43
2022/11/25 05:51:38;;;;;;;2.47;0.55;;;;;;;;;;6113630;23;20025;-42
2022/11/25 05:54:05;;;;;;;1.95;1.25;;;;;;;;;;6135182;23;20096;-42
2022/11/25 05:56:31;;;;;;;9.45;0.73;;;;;;;;;;6139659;23;20013;-41
2022/11/25 05:58:58;;;;;;;1.30;0.20;;;;;;;;;;6134352;23;20065;-43
2022/11/25 06:01:25;;;;;;;4.00;1.90;;;;;;;;;;6140227;23;20021;-43
2022/11/25 06:03:51;;;;;;;2.53;0.63;;;;;;;;;;6129431;23;20808;-43
2022/11/25 06:06:18;;;;;;;1.40;0.30;;;;;;;;;;6136267;23;20115;-44
2022/11/25 06:08:46;;;;;;;1.25;0.25;;;;;;;;;;6134791;23;20531;-42
2022/11/25 06:11:14;;;;;;;0.90;0.15;;;;;;;;;;6139844;23;20014;-43
2022/11/25 06:13:41;;;;;;;1.30;0.20;;;;;;;;;;6110226;23;20390;-42
2022/11/25 06:16:08;;;;;;;1.02;0.20;;;;;;;;;;6135525;23;20448;-42
2022/11/25 06:18:35;;;;;;;1.55;0.35;;;;;;;;;;6135729;23;20049;-44
2022/11/25 06:21:02;;;;;;;3.08;1.00;;;;;;;;;;6133899;23;20029;-42
2022/11/25 06:23:28;;;;;;;1.83;0.70;;;;;;;;;;6136532;23;20025;-43
2022/11/25 06:26:02;;;;;;;1.40;0.40;;;;;;;;;;6134986;23;20093;-43
2022/11/25 06:28:32;;;;;;;1.10;0.20;;;;;;;;;;6141020;23;20018;-41
2022/11/25 06:31:03;;;;;;;1.15;0.20;;;;;;;;;;6134379;23;20021;-45
2022/11/25 06:33:30;;;;;;;1.25;0.22;;;;;;;;;;6138969;23;20440;-40
2022/11/25 06:35:56;;;;;;;1.10;0.20;;;;;;;;;;6111899;23;20077;-41
2022/11/25 06:38:23;;;;;;;0.93;0.20;;;;;;;;;;6137715;23;20017;-41
2022/11/25 06:40:49;;;;;;;0.95;0.15;;;;;;;;;;6142669;23;20072;-43
2022/11/25 06:43:17;;;;;;;1.38;0.20;;;;;;;;;;6136926;23;20092;-42
2022/11/25 06:45:43;;;;;;;1.00;0.20;;;;;;;;;;6137411;23;20014;-43
2022/11/25 06:48:10;;;;;;;2.05;0.32;;;;;;;;;;6141909;23;20393;-44
2022/11/25 06:50:36;;;;;;;1.10;0.20;;;;;;;;;;6136389;23;20065;-42
2022/11/25 06:53:03;;;;;;;5.57;0.45;;;;;;;;;;6141522;23;20065;-44
2022/11/25 06:55:29;;;;;;;1.40;0.30;;;;;;;;;;6138774;23;20711;-42
2022/11/25 06:57:56;;;;;;;2.58;0.40;;;;;;;;;;6141923;23;20077;-41
2022/11/25 07:00:23;;;;;;;1.15;0.20;;;;;;;;;;6135215;23;20072;-44
2022/11/25 07:02:50;;;;;;;1.37;0.27;;;;;;;;;;6141574;23;20069;-42
2022/11/25 07:05:16;;;;;;;1.48;0.47;;;;;;;;;;6135171;23;20017;-41
2022/11/25 07:07:43;;;;;;;1.05;0.20;;;;;;;;;;6141103;23;20017;-42
2022/11/25 07:10:10;;;;;;;1.58;0.50;;;;;;;;;;6136348;23;20018;-42
2022/11/25 07:12:36;;;;;;;1.00;0.17;;;;;;;;;;6140289;23;20037;-42
2022/11/25 07:15:03;;;;;;;2.37;1.13;;;;;;;;;;6140086;23;20018;-46
2022/11/25 07:17:32;;;;;;;1.00;0.20;;;;;;;;;;6139639;23;20017;-42
2022/11/25 07:19:58;;;;;;;1.20;0.20;;;;;;;;;;6137025;23;20025;-43
2022/11/25 07:22:25;;;;;;;0.90;0.10;;;;;;;;;;6134565;23;20085;-43
2022/11/25 07:24:51;;;;;;;8.63;0.68;;;;;;;;;;6139311;23;20524;-44
2022/11/25 07:27:18;;;;;;;1.40;0.27;;;;;;;;;;6140492;23;20433;-42
2022/11/25 07:29:48;;;;;;;1.10;0.20;;;;;;;;;;6140318;23;20014;-43
2022/11/25 07:32:14;;;;;;;1.20;0.20;;;;;;;;;;6136231;23;20340;-42
2022/11/25 07:34:42;;;;;;;1.30;0.20;;;;;;;;;;6140262;23;20463;-41
2022/11/25 07:37:09;;;;;;;1.45;0.30;;;;;;;;;;6137974;23;20014;-45
2022/11/25 07:39:35;;;;;;;2.20;0.53;;;;;;;;;;6129008;23;20781;-43
2022/11/25 07:42:02;;;;;;;3.40;0.68;;;;;;;;;;6114376;23;20393;-42
2022/11/25 07:44:28;;;;;;;1.52;0.47;;;;;;;;;;6137278;23;20628;-43
2022/11/25 07:46:55;;;;;;;1.08;0.15;;;;;;;;;;6141662;23;20022;-42
2022/11/25 07:49:24;;;;;;;1.85;0.70;;;;;;;;;;6136126;23;20021;-41
2022/11/25 07:51:53;;;;;;;1.30;0.20;;;;;;;;;;6141605;23;20322;-43
2022/11/25 07:54:21;;;;;;;1.58;0.50;;;;;;;;;;6137062;23;20022;-42
2022/11/25 07:56:48;;;;;;;1.33;0.55;;;;;;;;;;6144291;23;20018;-43
2022/11/25 07:59:15;;;;;;;1.10;0.20;;;;;;;;;;6134048;23;20027;-42
2022/11/25 08:01:42;;;;;;;1.63;0.40;;;;;;;;;;6139060;23;20436;-42
2022/11/25 08:04:09;;;;;;;1.27;0.20;;;;;;;;;;6131064;23;20013;-41
2022/11/25 08:06:37;;;;;;;1.77;0.63;;;;;;;;;;6143327;23;20258;-42
2022/11/25 08:09:05;;;;;;;1.40;0.30;;;;;;;;;;6137273;23;20013;-41
2022/11/25 08:11:32;;;;;;;1.38;0.30;;;;;;;;;;6139278;23;20021;-41
2022/11/25 08:13:59;;;;;;;2.63;0.50;;;;;;;;;;6138838;23;20033;-43
2022/11/25 08:16:27;;;;;;;1.60;0.20;;;;;;;;;;6137864;23;20013;-42
2022/11/25 08:18:53;;;;;;;1.00;0.20;;;;;;;;;;6135901;23;20025;-43
2022/11/25 08:21:20;;;;;;;1.20;0.30;;;;;;;;;;6139241;23;20035;-41
2022/11/25 08:23:47;;;;;;;5.13;0.30;;;;;;;;;;6138431;23;20021;-41
2022/11/25 08:26:16;;;;;;;2.35;1.00;;;;;;;;;;6139327;23;20042;-42
2022/11/25 08:28:43;;;;;;;1.10;0.20;;;;;;;;;;6115498;23;20507;-42
2022/11/25 08:31:14;;;;;;;1.20;0.20;;;;;;;;;;6136379;23;20018;-40
2022/11/25 08:33:40;;;;;;;1.15;0.20;;;;;;;;;;6140279;23;20014;-43
2022/11/25 08:36:08;;;;;;;1.10;0.20;;;;;;;;;;6134464;23;20381;-42
2022/11/25 08:38:34;;;;;;;1.40;0.30;;;;;;;;;;6134892;23;20014;-42
2022/11/25 08:41:00;;;;;;;0.90;0.20;;;;;;;;;;6108180;23;20029;-41
2022/11/25 08:43:29;;;;;;;1.10;0.20;;;;;;;;;;6133947;23;20025;-41
2022/11/25 08:45:55;;;;;;;1.20;0.25;;;;;;;;;;6137339;23;20021;-42
2022/11/25 08:48:22;;;;;;;1.63;0.28;;;;;;;;;;6131852;23;20025;-41
2022/11/25 08:50:51;;;;;;;2.92;1.25;;;;;;;;;;6141553;23;20017;-40
2022/11/25 08:53:18;;;;;;;2.30;0.53;;;;;;;;;;6135632;23;20029;-41
2022/11/25 08:55:44;;;;;;;1.77;0.77;;;;;;;;;;6140778;23;20018;-41
2022/11/25 08:58:12;;;;;;;1.13;0.20;;;;;;;;;;6140222;23;20014;-40
2022/11/25 09:00:40;;;;;;;4.78;0.70;;;;;;;;;;6135558;23;20076;-41
2022/11/25 09:03:07;;;;;;;1.45;0.45;;;;;;;;;;6140859;23;20018;-41
2022/11/25 09:05:35;;;;;;;1.20;0.27;;;;;;;;;;6134788;23;20041;-41
2022/11/25 09:08:01;;;;;;;1.00;0.20;;;;;;;;;;6140233;23;20018;-42
2022/11/25 09:10:28;;;;;;;1.00;0.20;;;;;;;;;;6131165;23;20418;-41
2022/11/25 09:12:55;;;;;;;1.48;0.60;;;;;;;;;;6132421;23;20053;-42
2022/11/25 09:15:22;;;;;;;1.52;0.30;;;;;;;;;;6132360;23;20018;-41
2022/11/25 09:17:57;;;;;;;1.43;0.53;;;;;;;;;;6136934;23;20014;-41
2022/11/25 09:20:23;;;;;;;1.08;0.20;;;;;;;;;;6131558;23;20078;-43
2022/11/25 09:22:50;;;;;;;1.23;0.50;;;;;;;;;;6138409;23;20440;-41
2022/11/25 09:25:16;;;;;;;0.80;0.10;;;;;;;;;;6132245;23;20496;-40
2022/11/25 09:27:43;;;;;;;1.75;0.40;;;;;;;;;;6100712;23;20018;-41
2022/11/25 09:30:10;;;;;;;4.20;0.40;;;;;;;;;;6123382;23;20205;-42
2022/11/25 09:32:40;;;;;;;4.75;0.82;;;;;;;;;;6122062;23;20017;-40
2022/11/25 09:35:08;;;;;;;1.48;0.28;;;;;;;;;;6122003;23;20426;-43
2022/11/25 09:37:35;;;;;;;1.23;0.22;;;;;;;;;;6127578;23;20586;-40
2022/11/25 09:40:01;;;;;;;3.00;1.25;;;;;;;;;;6120165;23;20033;-41
2022/11/25 09:48:09;;;;;;;1.10;0.20;;;;;;;;;;6124246;23;20017;-42
2022/11/25 09:50:46;;;;;;;0.68;0.10;;;;;;;;;;6125523;23;20028;-42
2022/11/25 09:53:18;;;;;;;2.92;1.40;;;;;;;;;;6123402;23;20014;-42
2022/11/25 09:55:45;;;;;;;0.90;0.20;;;;;;;;;;6121361;23;20085;-42
2022/11/25 09:58:16;;;;;;;11.73;0.30;;;;;;;;;;6126609;23;20448;-41
2022/11/25 10:00:44;;;;;;;0.88;0.17;;;;;;;;;;6122271;23;20459;-42
2022/11/25 10:03:15;;;;;;;1.20;0.32;;;;;;;;;;6126822;23;20018;-41
2022/11/25 10:05:46;;;;;;;0.90;0.10;;;;;;;;;;6116704;23;20438;-44
2022/11/25 10:08:15;;;;;;;1.30;0.30;;;;;;;;;;6125008;23;20097;-40
2022/11/25 10:10:43;;;;;;;1.63;0.70;;;;;;;;;;6142610;23;20022;-41
2022/11/25 10:13:15;;;;;;;0.90;0.20;;;;;;;;;;6140367;23;20432;-41
2022/11/25 10:15:44;;;;;;;1.45;0.40;;;;;;;;;;6139584;23;20018;-41
2022/11/25 10:18:14;;;;;;;1.13;0.28;;;;;;;;;;6142925;23;20010;-41
2022/11/25 10:20:41;;;;;;;1.10;0.20;;;;;;;;;;6132502;23;20483;-41
2022/11/25 10:23:12;;;;;;;0.98;0.10;;;;;;;;;;6130737;23;20499;-42
2022/11/25 10:25:39;;;;;;;1.00;0.10;;;;;;;;;;6135777;23;20013;-41
2022/11/25 10:28:12;;;;;;;1.02;0.20;;;;;;;;;;6140230;23;20017;-43
2022/11/25 10:30:41;;;;;;;1.35;0.30;;;;;;;;;;6136050;23;20014;-42
2022/11/25 10:33:14;;;;;;;0.93;0.17;;;;;;;;;;6139388;23;20400;-45
2022/11/25 10:35:43;;;;;;;1.40;0.30;;;;;;;;;;6135682;23;20488;-41
2022/11/25 10:38:15;;;;;;;1.30;0.40;;;;;;;;;;6135108;23;20014;-42
2022/11/25 10:40:44;;;;;;;1.40;0.30;;;;;;;;;;6140641;23;20072;-41
2022/11/25 10:43:12;;;;;;;1.73;0.75;;;;;;;;;;6137147;23;20089;-42
2022/11/25 10:45:41;;;;;;;1.23;0.23;;;;;;;;;;6137938;23;20317;-41
2022/11/25 10:48:13;;;;;;;1.10;0.20;;;;;;;;;;6129252;23;20515;-41
2022/11/25 10:50:47;;;;;;;1.20;0.20;;;;;;;;;;6139436;23;20024;-41
2022/11/25 10:53:17;;;;;;;1.88;0.52;;;;;;;;;;6140674;23;20014;-41
2022/11/25 10:55:56;;;;;;;0.93;0.15;;;;;;;;;;6140911;23;20018;-41
2022/11/25 10:58:26;;;;;;;1.10;0.20;;;;;;;;;;6114530;23;20508;-41
2022/11/25 11:01:01;;;;;;;1.40;0.30;;;;;;;;;;6140978;23;20437;-42
2022/11/25 11:03:28;;;;;;;0.90;0.20;;;;;;;;;;6134969;23;20028;-43
2022/11/25 11:05:55;;;;;;;1.25;0.40;;;;;;;;;;6138712;23;20065;-43
2022/11/25 11:08:24;;;;;;;3.00;0.60;;;;;;;;;;6141399;23;20045;-42
2022/11/25 11:11:05;;;;;;;1.30;0.27;;;;;;;;;;6140365;23;20065;-42
2022/11/25 11:13:32;;;;;;;1.60;0.30;;;;;;;;;;6140261;23;20464;-42
2022/11/25 11:15:59;;;;;;;1.35;0.30;;;;;;;;;;6138947;23;20021;-42
2022/11/25 11:18:26;;;;;;;1.02;0.20;;;;;;;;;;6142931;23;20080;-42
2022/11/25 11:20:53;;;;;;;3.25;1.00;;;;;;;;;;6138431;23;20044;-42
2022/11/25 11:23:20;;;;;;;2.10;0.73;;;;;;;;;;6141109;23;20670;-41
2022/11/25 11:25:56;;;;;;;1.33;0.25;;;;;;;;;;6136695;23;20124;-41
2022/11/25 11:28:27;;;;;;;1.00;0.20;;;;;;;;;;6140340;23;20096;-42
2022/11/25 11:30:55;;;;;;;3.92;0.52;;;;;;;;;;6136990;23;20104;-44
2022/11/25 11:33:29;;;;;;;1.05;0.20;;;;;;;;;;6143187;23;20069;-42
2022/11/25 11:36:02;;;;;;;1.50;0.37;;;;;;;;;;6142813;23;20389;-41
2022/11/25 11:38:31;;;;;;;1.45;0.22;;;;;;;;;;6140322;23;20104;-41
2022/11/25 11:41:05;;;;;;;1.10;0.20;;;;;;;;;;6138289;23;20018;-41
2022/11/25 11:43:39;;;;;;;2.08;0.43;;;;;;;;;;6144149;23;20396;-42
2022/11/25 11:46:18;;;;;;;1.20;0.20;;;;;;;;;;6138240;23;20384;-42
2022/11/25 11:48:51;;;;;;;2.60;1.73;;;;;;;;;;6115597;23;20112;-42
2022/11/25 11:51:21;;;;;;;1.35;0.32;;;;;;;;;;6138310;23;20471;-42
2022/11/25 11:53:52;;;;;;;3.42;0.35;;;;;;;;;;6138507;23;20370;-42
2022/11/25 11:56:28;;;;;;;1.85;1.10;;;;;;;;;;6141661;23;20048;-42
2022/11/25 11:59:00;;;;;;;1.00;0.20;;;;;;;;;;6138145;23;20013;-42
2022/11/25 12:01:36;;;;;;;1.20;0.20;;;;;;;;;;6120308;23;20352;-41
2022/11/25 12:04:08;;;;;;;1.30;0.30;;;;;;;;;;6116774;23;20026;-42
2022/11/25 12:06:37;;;;;;;2.25;0.55;;;;;;;;;;6121985;23;20515;-42
2022/11/25 12:09:05;;;;;;;2.00;0.40;;;;;;;;;;6126437;23;20028;-42
2022/11/25 12:11:35;;;;;;;1.65;0.60;;;;;;;;;;6123329;23;20511;-41
2022/11/25 12:14:04;;;;;;;1.40;0.30;;;;;;;;;;6121269;23;20021;-43
2022/11/25 12:16:33;;;;;;;4.47;0.85;;;;;;;;;;6120888;23;20021;-41
2022/11/25 12:19:03;;;;;;;1.70;0.52;;;;;;;;;;6120578;23;20048;-41
2022/11/25 12:21:36;;;;;;;3.08;0.60;;;;;;;;;;6126721;23;20448;-42
2022/11/25 12:24:04;;;;;;;3.67;0.30;;;;;;;;;;6119036;23;20064;-42
2022/11/25 12:26:36;;;;;;;0.97;0.20;;;;;;;;;;6126068;23;20020;-43
2022/11/25 12:29:06;;;;;;;3.85;0.60;;;;;;;;;;6123834;23;20028;-42
2022/11/25 12:31:37;;;;;;;4.63;0.93;;;;;;;;;;6126093;23;20167;-41
2022/11/25 12:34:11;;;;;;;2.63;0.63;;;;;;;;;;6116019;23;20076;-43
2022/11/25 12:36:39;;;;;;;1.67;0.40;;;;;;;;;;6122173;23;20591;-41
2022/11/25 12:39:11;;;;;;;2.43;0.87;;;;;;;;;;6115679;23;20025;-43
2022/11/25 12:41:41;;;;;;;4.28;0.82;;;;;;;;;;6112953;23;20021;-41
2022/11/25 12:44:14;;;;;;;2.25;0.65;;;;;;;;;;6117145;23;20041;-42
2022/11/25 12:46:42;;;;;;;2.95;0.70;;;;;;;;;;6106854;23;20061;-41
2022/11/25 12:49:14;;;;;;;1.42;0.50;;;;;;;;;;6100756;23;20076;-41
2022/11/25 12:51:46;;;;;;;1.63;0.47;;;;;;;;;;6104422;23;20017;-43
2022/11/25 12:54:21;;;;;;;1.40;0.30;;;;;;;;;;6111912;23;20017;-42
2022/11/25 12:57:01;;;;;;;1.75;0.75;;;;;;;;;;6123523;23;20049;-41
2022/11/25 12:59:35;;;;;;;1.67;0.45;;;;;;;;;;6122863;23;20035;-41
2022/11/25 13:02:12;;;;;;;1.48;0.30;;;;;;;;;;6111597;23;20021;-41
2022/11/25 13:04:56;;;;;;;1.13;0.20;;;;;;;;;;6115553;23;20025;-43
2022/11/25 13:07:28;;;;;;;1.23;0.20;;;;;;;;;;6118531;23;20022;-43
2022/11/25 13:10:18;;;;;;;1.67;0.30;;;;;;;;;;6122097;23;20014;-43
2022/11/25 13:12:51;;;;;;;6.82;0.50;;;;;;;;;;6115570;23;20022;-41
2022/11/25 13:15:25;;;;;;;1.60;0.30;;;;;;;;;;6115351;23;20065;-42
2022/11/25 13:17:54;;;;;;;4.73;2.03;;;;;;;;;;6118997;23;20021;-42
2022/11/25 13:20:34;;;;;;;3.30;1.08;;;;;;;;;;6119372;23;20018;-44
2022/11/25 13:23:07;;;;;;;1.58;0.40;;;;;;;;;;6123063;23;20535;-43
2022/11/25 13:25:35;;;;;;;1.15;0.22;;;;;;;;;;6115442;23;20017;-43
2022/11/25 13:28:03;;;;;;;1.30;0.30;;;;;;;;;;6123597;23;20022;-41
2022/11/25 13:30:38;;;;;;;1.57;0.30;;;;;;;;;;6124320;23;20049;-42
2022/11/25 13:33:22;;;;;;;1.42;0.30;;;;;;;;;;6116301;23;20017;-41
2022/11/25 13:35:53;;;;;;;2.33;1.05;;;;;;;;;;6114875;23;20100;-40
2022/11/25 13:38:47;;;;;;;1.83;0.73;;;;;;;;;;6115397;23;20456;-41
2022/11/25 13:41:47;;;;;;;1.10;0.20;;;;;;;;;;6121644;23;20559;-41
2022/11/25 13:44:26;;;;;;;1.50;0.30;;;;;;;;;;5996987;23;20031;-40
2022/11/25 13:46:57;;;;;;;2.67;0.70;;;;;;;;;;6007566;23;20029;-40
2022/11/25 13:49:25;;;;;;;2.45;0.82;;;;;;;;;;6065576;23;20104;-41
2022/11/25 13:51:54;;;;;;;1.20;0.20;;;;;;;;;;6124067;23;20014;-40
2022/11/25 13:54:22;;;;;;;2.65;0.68;;;;;;;;;;6113302;23;20014;-42
2022/11/25 13:56:59;;;;;;;1.50;0.30;;;;;;;;;;6125081;23;20140;-40
2022/11/25 13:59:36;;;;;;;0.90;0.13;;;;;;;;;;6121628;23;20018;-40
2022/11/25 14:02:23;;;;;;;1.25;0.20;;;;;;;;;;6117963;23;20526;-41
2022/11/25 14:04:54;;;;;;;2.03;0.65;;;;;;;;;;6110818;23;20026;-40
2022/11/25 14:07:26;;;;;;;1.60;0.22;;;;;;;;;;6120373;23;20744;-39
2022/11/25 14:10:02;;;;;;;1.20;0.20;;;;;;;;;;6124800;23;20063;-40
2022/11/25 14:12:37;;;;;;;4.15;2.28;;;;;;;;;;6126267;23;20381;-39
2022/11/25 14:15:11;;;;;;;2.03;0.50;;;;;;;;;;6115887;23;20021;-42
2022/11/25 14:18:07;;;;;;;1.80;0.60;;;;;;;;;;6125917;23;20097;-40
2022/11/25 14:20:41;;;;;;;1.88;0.50;;;;;;;;;;6123173;23;20033;-42
2022/11/25 14:23:19;;;;;;;5.17;1.27;;;;;;;;;;6127308;23;20092;-41
2022/11/25 14:25:48;;;;;;;3.78;1.15;;;;;;;;;;6121694;23;20027;-40
2022/11/25 14:28:20;;;;;;;1.52;0.43;;;;;;;;;;6125243;23;20367;-41
2022/11/25 14:30:50;;;;;;;2.25;0.55;;;;;;;;;;6124838;23;20022;-40
2022/11/25 14:33:18;;;;;;;5.22;2.03;;;;;;;;;;6125090;23;20093;-40
2022/11/25 14:35:48;;;;;;;3.80;0.40;;;;;;;;;;6119407;23;20060;-40
2022/11/25 14:38:20;;;;;;;1.70;0.40;;;;;;;;;;6118684;23;20464;-40
2022/11/25 14:40:51;;;;;;;3.53;1.20;;;;;;;;;;6126246;23;20358;-41
2022/11/25 14:43:20;;;;;;;1.63;0.57;;;;;;;;;;6117039;23;20030;-41
2022/11/25 14:45:47;;;;;;;1.20;0.20;;;;;;;;;;6121600;23;20018;-40
2022/11/25 14:48:14;;;;;;;1.50;0.40;;;;;;;;;;6122540;23;20017;-40
2022/11/25 14:50:41;;;;;;;1.52;0.30;;;;;;;;;;6126770;23;20041;-41
2022/11/25 14:53:13;;;;;;;2.20;0.88;;;;;;;;;;6124310;23;20017;-41
2022/11/25 14:55:39;;;;;;;3.90;0.70;;;;;;;;;;6118156;23;20053;-42
2022/11/25 14:58:05;;;;;;;1.58;0.30;;;;;;;;;;6122327;23;20052;-40
2022/11/25 15:00:32;;;;;;;4.20;1.00;;;;;;;;;;6129542;23;20017;-41
2022/11/25 15:02:59;;;;;;;1.80;0.40;;;;;;;;;;6123760;23;20153;-40
2022/11/25 15:05:26;;;;;;;1.52;0.40;;;;;;;;;;6116877;23;20036;-40